createdAt,value
2019-01-31T00:05:59.640Z,60.07
2019-01-31T00:11:16.022Z,59.10
2019-01-31T00:17:07.296Z,63.13
2019-01-31T00:23:02.406Z,63.50
2019-01-31T00:28:45.453Z,55.53
2019-01-31T00:34:18.422Z,58.93
2019-01-31T00:40:08.442Z,58.67
2019-01-31T00:45:47.682Z,59.87
2019-01-31T00:51:01.805Z,55.83
2019-01-31T00:56:48.533Z,57.20
2019-01-31T01:02:51.313Z,55.67
2019-01-31T01:08:22.099Z,57.77
2019-01-31T01:13:38.098Z,59.87
2019-01-31T01:19:39.173Z,65.03
2019-01-31T01:25:29.908Z,59.57
2019-01-31T01:30:58.303Z,56.23
2019-01-31T01:36:11.545Z,53.70
2019-01-31T01:42:06.455Z,49.30
2019-01-31T01:47:21.923Z,58.57
2019-01-31T01:53:07.947Z,55.90
2019-01-31T01:58:29.530Z,55.03
2019-01-31T02:04:24.716Z,55.77
2019-01-31T02:10:26.034Z,56.17
2019-01-31T02:16:13.304Z,53.73
2019-01-31T02:22:24.457Z,52.13
2019-01-31T02:28:13.671Z,51.40
2019-01-31T02:34:22.164Z,54.80
2019-01-31T02:40:09.886Z,53.73
2019-01-31T02:46:06.104Z,51.17
2019-01-31T02:51:47.986Z,56.23
2019-01-31T02:57:27.675Z,53.40
2019-01-31T03:02:54.189Z,51.87
2019-01-31T03:08:26.292Z,50.53
2019-01-31T03:14:09.904Z,47.23
2019-01-31T03:19:55.847Z,51.03
2019-01-31T03:25:36.411Z,50.33
2019-01-31T03:31:14.476Z,49.20
2019-01-31T03:36:52.563Z,50.43
2019-01-31T03:43:11.792Z,50.87
2019-01-31T03:48:57.383Z,48.87
2019-01-31T03:55:07.208Z,48.67
2019-01-31T04:00:42.548Z,47.50
2019-01-31T04:06:11.041Z,44.77
2019-01-31T04:11:13.536Z,43.00
2019-01-31T04:16:15.830Z,47.23
2019-01-31T04:21:18.106Z,44.73
2019-01-31T04:26:20.836Z,47.53
2019-01-31T04:31:23.703Z,47.90
2019-01-31T04:36:27.193Z,44.40
2019-01-31T04:41:30.187Z,46.30
2019-01-31T04:46:32.976Z,41.90
2019-01-31T04:51:36.539Z,48.17
2019-01-31T04:56:39.087Z,43.13
2019-01-31T05:01:41.369Z,45.87
2019-01-31T05:06:43.629Z,42.57
2019-01-31T05:11:46.552Z,46.17
2019-01-31T05:16:49.031Z,46.30
2019-01-31T05:21:51.845Z,45.27
2019-01-31T05:26:54.931Z,39.30
2019-01-31T05:31:59.388Z,39.37
2019-01-31T05:37:02.097Z,45.97
2019-01-31T05:42:05.198Z,42.67
2019-01-31T05:47:09.876Z,42.80
2019-01-31T05:52:12.220Z,40.87
2019-01-31T05:57:14.512Z,40.57
2019-01-31T06:02:16.764Z,40.77
2019-01-31T06:07:19.263Z,37.57
2019-01-31T06:12:21.601Z,41.93
2019-01-31T06:17:23.930Z,39.43
2019-01-31T06:22:26.328Z,44.93
2019-01-31T06:27:28.721Z,37.57
2019-01-31T06:32:30.971Z,44.03
2019-01-31T06:37:33.702Z,40.30
2019-01-31T06:42:36.441Z,39.80
2019-01-31T06:47:38.935Z,36.93
2019-01-31T06:52:42.031Z,38.13
2019-01-31T06:57:44.213Z,34.47
2019-01-31T07:02:47.534Z,35.13
2019-01-31T07:07:52.078Z,37.07
2019-01-31T07:12:55.188Z,38.90
2019-01-31T07:17:57.722Z,36.40
2019-01-31T07:23:00.019Z,39.13
2019-01-31T07:28:02.963Z,36.07
2019-01-31T07:33:05.228Z,35.80
2019-01-31T07:38:07.826Z,37.47
2019-01-31T07:43:10.874Z,38.07
2019-01-31T07:48:13.178Z,44.57
2019-01-31T07:53:15.747Z,38.60
2019-01-31T07:58:20.492Z,37.57
2019-01-31T08:03:22.268Z,44.87
2019-01-31T08:08:24.879Z,37.53
2019-01-31T08:13:27.346Z,41.47
2019-01-31T08:18:29.654Z,42.20
2019-01-31T08:23:32.144Z,37.87
2019-01-31T08:28:34.681Z,51.80
2019-01-31T08:33:37.023Z,43.47
2019-01-31T08:38:39.291Z,39.37
2019-01-31T08:43:42.293Z,40.23
2019-01-31T08:48:45.216Z,40.50
2019-01-31T08:53:47.457Z,38.17
2019-01-31T08:58:49.693Z,44.60
2019-01-31T09:03:51.949Z,40.90
2019-01-31T09:08:54.633Z,39.83
2019-01-31T09:13:57.402Z,39.83
2019-01-31T09:18:59.690Z,45.50
2019-01-31T09:24:50.147Z,42.93
2019-01-31T09:30:15.745Z,39.57
2019-01-31T09:35:31.363Z,42.17
2019-01-31T09:41:16.655Z,36.57
2019-01-31T09:46:31.987Z,40.23
2019-01-31T09:52:27.915Z,37.20
2019-01-31T09:58:22.063Z,49.73
2019-01-31T10:04:15.426Z,40.20
2019-01-31T10:10:05.295Z,38.47
2019-01-31T10:15:40.942Z,38.57
2019-01-31T10:21:41.053Z,33.03
2019-01-31T10:27:15.794Z,30.97
2019-01-31T10:33:18.197Z,28.80
2019-01-31T10:38:48.130Z,25.17
2019-01-31T10:44:59.816Z,32.53
2019-01-31T10:50:49.150Z,23.53
2019-01-31T10:56:45.196Z,21.10
2019-01-31T11:02:40.421Z,23.77
2019-01-31T11:08:05.589Z,26.60
2019-01-31T11:13:59.812Z,21.77
2019-01-31T11:19:36.136Z,30.27
2019-01-31T11:25:14.380Z,18.57
2019-01-31T11:30:41.577Z,19.50
2019-01-31T11:37:08.821Z,19.63
2019-01-31T11:43:17.039Z,21.40
2019-01-31T11:48:37.614Z,20.00
2019-01-31T11:54:26.933Z,14.87
2019-01-31T11:59:29.264Z,17.70
2019-01-31T12:04:31.784Z,21.97
2019-01-31T12:09:38.678Z,19.90
2019-01-31T12:21:03.636Z,26.53
2019-01-31T12:26:06.385Z,17.00
2019-01-31T12:31:09.706Z,18.17
2019-01-31T12:36:12.712Z,16.37
2019-01-31T12:41:15.484Z,19.20
2019-01-31T12:46:18.298Z,15.40
2019-01-31T12:51:21.193Z,19.00
2019-01-31T12:56:23.735Z,21.37
2019-01-31T13:01:26.294Z,24.27
2019-01-31T13:13:18.383Z,22.03
2019-01-31T13:18:21.179Z,22.33
2019-01-31T13:23:24.094Z,19.43
2019-01-31T13:28:26.614Z,23.57
2019-01-31T13:33:29.579Z,22.37
2019-01-31T13:38:34.542Z,25.90
2019-01-31T13:43:37.632Z,20.80
2019-01-31T13:48:40.120Z,20.33
2019-01-31T13:53:42.690Z,24.33
2019-01-31T13:58:55.420Z,25.27
2019-01-31T14:03:58.065Z,19.90
2019-01-31T14:09:00.992Z,20.07
2019-01-31T14:14:09.228Z,17.53
2019-01-31T14:19:09.716Z,25.03
2019-01-31T14:24:12.507Z,18.30
2019-01-31T14:29:15.119Z,22.83
2019-01-31T14:34:30.213Z,18.63
2019-01-31T14:39:32.496Z,21.03
2019-01-31T14:44:35.268Z,21.40
2019-01-31T14:49:39.302Z,18.30
2019-01-31T14:54:42.128Z,24.23
2019-01-31T14:59:44.380Z,24.57
2019-01-31T15:04:46.629Z,26.00
2019-01-31T15:09:48.915Z,22.27
2019-01-31T15:14:51.286Z,22.50
2019-01-31T15:19:53.737Z,21.83
2019-01-31T15:24:56.490Z,23.10
2019-01-31T15:29:59.261Z,22.27
2019-01-31T15:35:02.007Z,20.50
2019-01-31T15:40:10.467Z,21.77
2019-01-31T15:45:13.004Z,18.87
2019-01-31T15:50:15.727Z,21.77
2019-01-31T15:55:19.350Z,26.23
2019-01-31T16:00:38.641Z,36.30
2019-01-31T16:05:41.161Z,33.40
2019-01-31T16:10:44.125Z,33.27
2019-01-31T16:15:47.662Z,35.27
2019-01-31T16:20:50.737Z,34.97
2019-01-31T16:25:53.781Z,37.17
2019-01-31T16:30:56.363Z,32.83
2019-01-31T16:35:58.740Z,34.60
2019-01-31T16:41:01.218Z,34.13
2019-01-31T16:46:09.882Z,35.87
2019-01-31T16:51:12.484Z,37.23
2019-01-31T16:56:16.186Z,39.33
2019-01-31T17:01:19.029Z,36.80
2019-01-31T17:06:24.185Z,37.40
2019-01-31T17:11:26.746Z,40.77
2019-01-31T17:16:29.645Z,37.77
2019-01-31T17:21:32.075Z,40.40
2019-01-31T17:26:34.334Z,35.30
2019-01-31T17:31:36.905Z,39.33
2019-01-31T17:36:39.125Z,40.93
2019-01-31T17:41:41.345Z,44.77
2019-01-31T17:46:43.539Z,45.77
2019-01-31T17:51:46.375Z,42.77
2019-01-31T17:56:53.397Z,40.33
2019-01-31T18:01:56.128Z,45.40
2019-01-31T18:06:58.874Z,45.03
2019-01-31T18:12:21.004Z,47.80
2019-01-31T18:17:23.524Z,51.20
2019-01-31T18:22:26.949Z,46.70
2019-01-31T18:27:29.438Z,48.77
2019-01-31T18:32:32.296Z,50.57
2019-01-31T18:37:35.544Z,54.27
2019-01-31T18:42:38.426Z,49.80
2019-01-31T18:47:42.032Z,57.40
2019-01-31T18:52:45.717Z,55.97
2019-01-31T18:57:48.356Z,60.60
2019-01-31T19:02:51.383Z,66.00
2019-01-31T19:07:54.262Z,55.73
2019-01-31T19:12:58.624Z,56.40
2019-01-31T19:18:06.022Z,57.43
2019-01-31T19:23:08.101Z,58.77
2019-01-31T19:28:13.100Z,59.17
2019-01-31T19:33:17.026Z,58.73
2019-01-31T19:38:20.018Z,58.90
2019-01-31T19:43:25.291Z,56.83
2019-01-31T19:48:30.103Z,66.90
2019-01-31T19:53:32.882Z,59.60
2019-01-31T19:58:35.266Z,59.70
2019-01-31T20:03:37.450Z,63.53
2019-01-31T20:08:42.482Z,59.20
2019-01-31T20:13:45.027Z,63.03
2019-01-31T20:18:47.540Z,63.73
2019-01-31T20:23:49.794Z,64.80
2019-01-31T20:28:53.614Z,61.53
2019-01-31T20:33:56.367Z,63.83
2019-01-31T20:39:06.955Z,65.13
2019-01-31T20:44:11.139Z,65.03
2019-01-31T20:49:13.952Z,65.57
2019-01-31T20:54:16.127Z,63.83
2019-01-31T20:59:18.731Z,67.87
2019-01-31T21:04:21.747Z,63.47
2019-01-31T21:09:24.384Z,68.73
2019-01-31T21:14:27.343Z,64.50
2019-01-31T21:19:30.684Z,69.67
2019-01-31T21:24:33.211Z,69.87
2019-01-31T21:29:35.590Z,69.57
2019-01-31T21:34:37.855Z,79.17
2019-01-31T21:39:40.037Z,72.63
2019-01-31T21:44:42.453Z,75.10
2019-01-31T21:49:45.036Z,75.40
2019-01-31T21:54:48.000Z,71.70
2019-01-31T21:59:50.779Z,76.67
2019-01-31T22:04:53.685Z,76.00
2019-01-31T22:09:56.186Z,76.57
2019-01-31T22:14:58.783Z,78.10
2019-01-31T22:20:02.095Z,78.50
2019-01-31T22:25:07.544Z,74.80
2019-01-31T22:30:17.867Z,88.20
2019-01-31T22:35:21.031Z,80.97
2019-01-31T22:40:23.313Z,84.17
2019-01-31T22:45:25.832Z,73.67
2019-01-31T22:50:28.042Z,83.30
2019-01-31T22:55:30.572Z,87.43
2019-01-31T23:01:23.765Z,83.93
2019-01-31T23:06:27.058Z,96.00
2019-01-31T23:11:29.455Z,86.17
2019-01-31T23:16:32.047Z,86.83
2019-01-31T23:21:35.393Z,79.63
2019-01-31T23:26:38.371Z,86.67
2019-01-31T23:31:41.643Z,84.73
2019-01-31T23:36:44.465Z,85.30
2019-01-31T23:41:47.080Z,85.77
2019-01-31T23:46:49.332Z,79.00
2019-01-31T23:51:52.740Z,84.20
2019-01-31T23:56:55.259Z,84.17
